createdAt,value
2019-02-05T00:01:40.318Z,9.60
2019-02-05T00:04:08.946Z,8.55
2019-02-05T00:06:37.631Z,7.65
2019-02-05T00:09:10.535Z,6.12
2019-02-05T00:11:39.120Z,7.72
2019-02-05T00:14:07.751Z,9.95
2019-02-05T00:16:36.467Z,10.93
2019-02-05T00:19:05.374Z,7.47
2019-02-05T00:21:34.185Z,7.50
2019-02-05T00:24:02.934Z,8.53
2019-02-05T00:26:31.571Z,8.30
2019-02-05T00:29:00.136Z,6.53
2019-02-05T00:31:28.692Z,5.92
2019-02-05T00:33:57.254Z,9.85
2019-02-05T00:36:25.836Z,8.58
2019-02-05T00:38:54.478Z,9.45
2019-02-05T00:41:23.172Z,8.15
2019-02-05T00:43:51.752Z,6.60
2019-02-05T00:46:20.376Z,8.68
2019-02-05T00:48:49.342Z,7.90
2019-02-05T00:51:18.136Z,9.88
2019-02-05T00:53:46.802Z,8.80
2019-02-05T00:56:17.639Z,8.30
2019-02-05T00:58:45.943Z,10.78
2019-02-05T01:01:15.518Z,7.08
2019-02-05T01:03:44.453Z,12.33
2019-02-05T01:06:13.111Z,11.10
2019-02-05T01:08:41.669Z,7.70
2019-02-05T01:11:10.232Z,7.90
2019-02-05T01:13:38.790Z,7.50
2019-02-05T01:16:07.446Z,7.67
2019-02-05T01:18:36.293Z,10.78
2019-02-05T01:21:05.024Z,8.05
2019-02-05T01:23:33.586Z,8.28
2019-02-05T01:26:02.205Z,9.23
2019-02-05T01:28:31.014Z,12.90
2019-02-05T01:30:59.589Z,11.18
2019-02-05T01:33:28.358Z,12.73
2019-02-05T01:35:56.941Z,11.18
2019-02-05T01:38:25.524Z,10.05
2019-02-05T01:40:54.106Z,15.72
2019-02-05T01:43:22.690Z,10.25
2019-02-05T01:45:51.263Z,11.63
2019-02-05T01:48:19.831Z,7.75
2019-02-05T01:50:48.641Z,10.23
2019-02-05T01:53:17.224Z,12.43
2019-02-05T01:55:45.871Z,12.40
2019-02-05T01:58:14.482Z,12.03
2019-02-05T02:00:43.046Z,11.83
2019-02-05T02:03:11.739Z,11.65
2019-02-05T02:05:40.586Z,15.45
2019-02-05T02:08:09.340Z,13.30
2019-02-05T02:10:37.867Z,9.65
2019-02-05T02:13:06.502Z,14.98
2019-02-05T02:15:35.141Z,13.72
2019-02-05T02:18:03.874Z,13.78
2019-02-05T02:20:32.439Z,13.15
2019-02-05T02:23:00.994Z,13.32
2019-02-05T02:25:29.570Z,15.10
2019-02-05T02:27:58.226Z,13.85
2019-02-05T02:30:29.530Z,11.75
2019-02-05T02:32:58.395Z,14.90
2019-02-05T02:35:26.956Z,12.40
2019-02-05T02:37:55.700Z,13.53
2019-02-05T02:40:24.266Z,10.35
2019-02-05T02:42:52.993Z,9.53
2019-02-05T02:45:21.634Z,12.03
2019-02-05T02:47:50.539Z,10.43
2019-02-05T02:50:19.205Z,15.13
2019-02-05T02:52:48.162Z,13.20
2019-02-05T02:55:16.803Z,11.60
2019-02-05T02:57:45.438Z,13.93
2019-02-05T03:00:16.249Z,11.90
2019-02-05T03:02:45.287Z,12.30
2019-02-05T03:05:15.680Z,14.33
2019-02-05T03:07:44.792Z,11.43
2019-02-05T03:10:16.724Z,10.48
2019-02-05T03:12:45.289Z,13.85
2019-02-05T03:15:13.996Z,11.43
2019-02-05T03:17:42.582Z,9.55
2019-02-05T03:20:11.991Z,9.45
2019-02-05T03:22:40.562Z,12.50
2019-02-05T03:25:10.725Z,12.20
2019-02-05T03:27:39.297Z,9.85
2019-02-05T03:30:10.545Z,8.13
2019-02-05T03:32:39.367Z,9.23
2019-02-05T03:35:08.025Z,11.40
2019-02-05T03:37:36.578Z,9.60
2019-02-05T03:40:11.474Z,12.30
2019-02-05T03:42:40.040Z,12.40
2019-02-05T03:45:09.004Z,15.83
2019-02-05T03:47:37.641Z,10.93
2019-02-05T03:50:06.353Z,11.28
2019-02-05T03:52:42.811Z,11.70
2019-02-05T03:55:37.206Z,11.15
2019-02-05T03:58:32.338Z,10.40
2019-02-05T04:01:39.713Z,11.83
2019-02-05T04:04:33.416Z,9.45
2019-02-05T04:07:33.609Z,9.75
2019-02-05T04:10:40.027Z,6.80
2019-02-05T04:13:26.515Z,11.50
2019-02-05T04:16:25.431Z,7.87
2019-02-05T04:19:42.931Z,9.10
2019-02-05T04:22:48.793Z,13.35
2019-02-05T04:25:58.391Z,15.60
2019-02-05T04:29:10.375Z,13.25
2019-02-05T04:32:01.379Z,17.23
2019-02-05T04:34:43.832Z,9.20
2019-02-05T04:37:42.601Z,9.28
2019-02-05T04:40:36.258Z,9.63
2019-02-05T04:43:37.245Z,6.90
2019-02-05T04:46:42.772Z,8.50
2019-02-05T04:49:30.250Z,10.78
2019-02-05T04:52:31.544Z,9.95
2019-02-05T04:55:28.202Z,8.43
2019-02-05T04:58:38.103Z,8.03
2019-02-05T05:01:31.049Z,15.13
2019-02-05T05:04:25.295Z,22.65
2019-02-05T05:07:46.957Z,18.67
2019-02-05T05:10:15.872Z,9.83
2019-02-05T05:12:44.440Z,8.15
2019-02-05T05:15:13.110Z,8.98
2019-02-05T05:17:41.784Z,7.35
2019-02-05T05:20:12.215Z,9.28
2019-02-05T05:22:40.839Z,10.20
2019-02-05T05:25:10.715Z,8.75
2019-02-05T05:27:39.342Z,7.25
2019-02-05T05:30:12.015Z,12.13
2019-02-05T05:32:40.567Z,7.33
2019-02-05T05:35:09.872Z,9.88
2019-02-05T05:37:38.518Z,7.35
2019-02-05T05:40:07.768Z,13.62
2019-02-05T05:42:36.328Z,7.15
2019-02-05T05:45:06.530Z,12.75
2019-02-05T05:47:35.094Z,7.17
2019-02-05T05:50:03.778Z,10.20
2019-02-05T05:52:32.508Z,8.85
2019-02-05T05:55:01.123Z,12.47
2019-02-05T05:57:29.868Z,10.03
2019-02-05T05:59:58.435Z,11.43
2019-02-05T06:02:27.016Z,11.05
2019-02-05T06:04:55.575Z,8.60
2019-02-05T06:07:24.183Z,11.57
2019-02-05T06:09:52.745Z,9.83
2019-02-05T06:12:21.596Z,9.33
2019-02-05T06:14:50.443Z,9.83
2019-02-05T06:17:19.076Z,10.75
2019-02-05T06:19:47.713Z,9.13
2019-02-05T06:22:16.305Z,7.75
2019-02-05T06:24:44.963Z,14.50
2019-02-05T06:27:13.643Z,10.43
2019-02-05T06:29:42.312Z,9.43
2019-02-05T06:32:10.916Z,10.78
2019-02-05T06:34:39.490Z,8.40
2019-02-05T06:37:08.061Z,8.90
2019-02-05T06:39:36.622Z,9.05
2019-02-05T06:42:05.258Z,9.48
2019-02-05T06:44:33.847Z,12.55
2019-02-05T06:47:02.422Z,15.65
2019-02-05T06:49:31.100Z,11.22
2019-02-05T06:51:59.909Z,10.60
2019-02-05T06:54:28.474Z,12.58
2019-02-05T06:56:57.044Z,9.63
2019-02-05T06:59:25.644Z,15.25
2019-02-05T07:01:54.216Z,20.30
2019-02-05T07:04:23.072Z,20.35
2019-02-05T07:06:51.660Z,18.17
2019-02-05T07:09:20.250Z,16.20
2019-02-05T07:11:48.837Z,19.50
2019-02-05T07:14:17.573Z,17.23
2019-02-05T07:16:46.390Z,10.48
2019-02-05T07:19:14.968Z,8.75
2019-02-05T07:21:44.047Z,8.18
2019-02-05T07:24:12.614Z,9.50
2019-02-05T07:26:41.221Z,10.23
2019-02-05T07:29:09.823Z,24.52
2019-02-05T07:31:38.392Z,22.45
2019-02-05T07:34:07.097Z,9.20
2019-02-05T07:36:35.687Z,15.53
2019-02-05T07:39:07.940Z,10.53
2019-02-05T07:41:36.544Z,11.57
2019-02-05T07:44:05.689Z,13.58
2019-02-05T07:46:34.256Z,17.37
2019-02-05T07:49:03.326Z,14.20
2019-02-05T07:51:31.935Z,12.65
2019-02-05T07:54:00.503Z,8.85
2019-02-05T07:56:29.074Z,10.55
2019-02-05T07:59:09.540Z,9.53
2019-02-05T08:01:28.024Z,9.40
2019-02-05T08:03:56.618Z,14.18
2019-02-05T08:06:25.258Z,12.65
2019-02-05T08:08:53.912Z,14.98
2019-02-05T08:11:23.550Z,13.62
2019-02-05T08:13:52.378Z,12.82
2019-02-05T08:16:21.123Z,10.88
2019-02-05T08:18:49.953Z,15.00
2019-02-05T08:21:18.532Z,12.58
2019-02-05T08:23:47.139Z,12.35
2019-02-05T08:26:15.709Z,12.73
2019-02-05T08:28:44.864Z,13.95
2019-02-05T08:31:13.435Z,12.65
2019-02-05T08:33:42.344Z,15.40
2019-02-05T08:36:10.934Z,11.95
2019-02-05T08:38:39.761Z,10.40
2019-02-05T08:41:08.547Z,7.50
2019-02-05T08:43:37.147Z,9.00
2019-02-05T08:46:05.786Z,9.13
2019-02-05T08:48:34.394Z,8.63
2019-02-05T08:51:02.963Z,9.10
2019-02-05T08:53:31.819Z,8.28
2019-02-05T08:56:00.397Z,9.60
2019-02-05T08:58:31.260Z,13.85
2019-02-05T09:00:59.301Z,14.10
2019-02-05T09:03:27.906Z,9.13
2019-02-05T09:05:56.618Z,9.50
2019-02-05T09:08:25.313Z,10.28
2019-02-05T09:10:54.144Z,9.73
2019-02-05T09:13:22.697Z,8.00
2019-02-05T09:15:51.278Z,9.10
2019-02-05T09:18:19.858Z,7.40
2019-02-05T09:20:48.562Z,8.83
2019-02-05T09:23:17.539Z,8.73
2019-02-05T09:25:46.086Z,6.70
2019-02-05T09:28:15.495Z,11.57
2019-02-05T09:30:44.051Z,8.20
2019-02-05T09:33:13.046Z,6.73
2019-02-05T09:35:41.683Z,6.10
2019-02-05T09:38:10.674Z,8.43
2019-02-05T09:40:39.301Z,7.93
2019-02-05T09:43:07.933Z,5.43
2019-02-05T09:45:36.835Z,6.97
2019-02-05T09:48:05.486Z,6.30
2019-02-05T09:50:44.164Z,7.67
2019-02-05T09:53:04.508Z,7.22
2019-02-05T09:55:36.036Z,6.27
2019-02-05T09:58:03.741Z,6.30
2019-02-05T10:00:34.713Z,8.53
2019-02-05T10:03:03.652Z,5.93
2019-02-05T10:05:32.644Z,6.30
2019-02-05T10:08:01.284Z,9.40
2019-02-05T10:10:30.021Z,11.53
2019-02-05T10:12:58.719Z,4.97
2019-02-05T10:15:32.672Z,6.00
2019-02-05T10:18:01.915Z,3.53
2019-02-05T10:20:30.516Z,3.17
2019-02-05T10:23:01.902Z,4.60
2019-02-05T10:25:30.725Z,5.03
2019-02-05T10:27:59.334Z,3.20
2019-02-05T10:30:36.204Z,3.60
2019-02-05T10:33:05.529Z,3.17
2019-02-05T10:35:34.170Z,3.17
2019-02-05T10:38:02.824Z,4.10
2019-02-05T10:40:31.642Z,2.90
2019-02-05T10:43:00.232Z,3.33
2019-02-05T10:45:29.079Z,3.63
2019-02-05T10:47:57.627Z,4.47
2019-02-05T10:50:26.374Z,3.70
2019-02-05T10:52:55.063Z,3.73
2019-02-05T10:55:23.731Z,4.70
2019-02-05T10:57:52.814Z,4.93
2019-02-05T11:00:24.805Z,3.93
2019-02-05T11:02:53.531Z,6.13
2019-02-05T11:05:24.627Z,5.20
2019-02-05T11:07:53.203Z,5.90
2019-02-05T11:10:22.043Z,4.57
2019-02-05T11:12:50.874Z,7.00
2019-02-05T11:15:21.560Z,4.73
2019-02-05T11:17:50.215Z,5.60
2019-02-05T11:20:20.797Z,6.87
2019-02-05T11:22:49.665Z,5.20
2019-02-05T11:25:18.400Z,7.47
2019-02-05T11:27:47.124Z,6.90
2019-02-05T11:30:24.037Z,12.37
2019-02-05T11:32:53.138Z,11.53
2019-02-05T11:35:21.985Z,6.77
2019-02-05T11:37:51.077Z,8.00
2019-02-05T11:40:22.310Z,9.17
2019-02-05T11:42:50.970Z,7.83
2019-02-05T11:45:19.937Z,7.00
2019-02-05T11:47:48.969Z,8.43
2019-02-05T11:50:17.934Z,6.37
2019-02-05T11:52:46.708Z,7.90
2019-02-05T11:55:16.992Z,8.53
2019-02-05T11:57:45.648Z,6.30
2019-02-05T12:00:32.337Z,8.10
2019-02-05T12:02:52.684Z,11.90
2019-02-05T12:05:21.243Z,6.93
2019-02-05T12:07:49.834Z,9.43
2019-02-05T12:10:19.093Z,6.70
2019-02-05T12:12:47.651Z,6.83
2019-02-05T12:15:16.386Z,9.77
2019-02-05T12:17:45.331Z,6.63
2019-02-05T12:20:14.521Z,5.07
2019-02-05T12:22:43.354Z,5.43
2019-02-05T12:25:14.136Z,6.60
2019-02-05T12:27:43.043Z,4.57
2019-02-05T12:30:18.830Z,4.97
2019-02-05T12:32:47.546Z,5.00
2019-02-05T12:35:16.206Z,6.33
2019-02-05T12:37:45.049Z,5.53
2019-02-05T12:40:15.056Z,9.23
2019-02-05T12:42:43.956Z,5.70
2019-02-05T12:45:18.910Z,4.93
2019-02-05T12:47:47.537Z,4.37
2019-02-05T12:50:27.400Z,14.50
2019-02-05T12:53:01.522Z,6.17
2019-02-05T12:55:30.464Z,5.83
2019-02-05T12:57:59.509Z,6.47
2019-02-05T13:00:33.967Z,6.10
2019-02-05T13:03:02.522Z,8.67
2019-02-05T13:05:31.267Z,10.60
2019-02-05T13:08:00.343Z,9.03
2019-02-05T13:10:31.511Z,6.80
2019-02-05T13:13:00.355Z,8.87
2019-02-05T13:15:28.938Z,7.40
2019-02-05T13:17:57.583Z,11.13
2019-02-05T13:20:27.715Z,11.00
2019-02-05T13:22:56.813Z,8.03
2019-02-05T13:25:26.803Z,9.63
2019-02-05T13:27:55.318Z,15.90
2019-02-05T13:30:25.713Z,13.47
2019-02-05T13:32:54.421Z,7.67
2019-02-05T13:35:23.070Z,10.67
2019-02-05T13:37:52.095Z,10.03
2019-02-05T13:40:22.621Z,14.43
2019-02-05T13:42:51.527Z,10.70
2019-02-05T13:45:22.632Z,10.50
2019-02-05T13:47:51.290Z,11.70
2019-02-05T13:50:32.595Z,11.00
2019-02-05T13:52:52.322Z,11.53
2019-02-05T13:55:23.029Z,12.00
2019-02-05T13:57:52.437Z,10.63
2019-02-05T14:00:30.496Z,10.13
2019-02-05T14:02:59.126Z,10.77
2019-02-05T14:05:27.969Z,12.70
2019-02-05T14:07:56.563Z,11.70
2019-02-05T14:10:27.595Z,10.70
2019-02-05T14:12:56.267Z,14.40
2019-02-05T14:15:26.655Z,10.87
2019-02-05T14:17:55.369Z,11.27
2019-02-05T14:20:24.362Z,12.40
2019-02-05T14:22:52.942Z,10.50
2019-02-05T14:25:21.708Z,15.20
2019-02-05T14:27:50.354Z,16.37
2019-02-05T14:30:40.417Z,14.57
2019-02-05T14:33:09.089Z,10.80
2019-02-05T14:35:37.826Z,9.80
2019-02-05T14:38:07.979Z,10.50
2019-02-05T14:40:36.630Z,17.50
2019-02-05T14:43:06.072Z,14.40
2019-02-05T14:45:34.815Z,14.80
2019-02-05T14:48:03.922Z,13.93
2019-02-05T14:50:33.614Z,11.23
2019-02-05T14:53:02.733Z,17.90
2019-02-05T14:55:31.390Z,12.73
2019-02-05T14:58:00.177Z,14.73
2019-02-05T15:00:30.616Z,12.40
2019-02-05T15:03:01.947Z,15.77
2019-02-05T15:05:29.850Z,13.70
2019-02-05T15:07:58.722Z,14.93
2019-02-05T15:10:27.479Z,14.60
2019-02-05T15:12:56.115Z,12.23
2019-02-05T15:15:24.974Z,16.20
2019-02-05T15:17:53.920Z,16.43
2019-02-05T15:20:27.961Z,17.17
2019-02-05T15:22:56.602Z,13.03
2019-02-05T15:25:25.257Z,12.33
2019-02-05T15:27:55.417Z,11.73
2019-02-05T15:30:26.862Z,16.47
2019-02-05T15:33:07.154Z,12.63
2019-02-05T15:35:35.775Z,18.37
2019-02-05T15:38:04.453Z,18.33
2019-02-05T15:40:33.144Z,15.23
2019-02-05T15:43:02.068Z,17.27
2019-02-05T15:45:30.729Z,16.33
2019-02-05T15:47:59.301Z,21.40
2019-02-05T15:50:27.943Z,18.10
2019-02-05T15:52:56.552Z,16.90
2019-02-05T15:55:25.196Z,14.73
2019-02-05T15:57:53.770Z,12.80
2019-02-05T16:00:22.654Z,16.33
2019-02-05T16:02:51.314Z,17.90
2019-02-05T16:05:20.044Z,15.67
2019-02-05T16:07:48.835Z,13.30
2019-02-05T16:10:17.678Z,19.83
2019-02-05T16:12:46.399Z,12.10
2019-02-05T16:15:15.457Z,13.20
2019-02-05T16:17:45.565Z,15.47
2019-02-05T16:20:14.335Z,18.30
2019-02-05T16:22:42.932Z,16.80
2019-02-05T16:25:11.869Z,24.23
2019-02-05T16:27:40.630Z,19.40
2019-02-05T16:30:13.090Z,22.63
2019-02-05T16:32:41.644Z,17.23
2019-02-05T16:35:10.578Z,18.87
2019-02-05T16:37:39.475Z,18.17
2019-02-05T16:40:12.865Z,22.97
2019-02-05T16:42:41.444Z,19.00
2019-02-05T16:45:12.773Z,24.07
2019-02-05T16:47:41.726Z,18.55
2019-02-05T16:50:14.401Z,23.55
2019-02-05T16:52:43.148Z,24.32
2019-02-05T16:55:12.820Z,24.15
2019-02-05T16:57:41.378Z,21.97
2019-02-05T17:00:22.974Z,19.12
2019-02-05T17:02:51.860Z,22.25
2019-02-05T17:05:22.198Z,20.35
2019-02-05T17:07:50.916Z,23.22
2019-02-05T17:10:21.224Z,21.82
2019-02-05T17:12:50.949Z,19.37
2019-02-05T17:15:20.168Z,22.52
2019-02-05T17:17:48.893Z,21.37
2019-02-05T17:20:20.914Z,23.25
2019-02-05T17:22:49.981Z,20.00
2019-02-05T17:25:19.665Z,22.20
2019-02-05T17:27:48.539Z,25.88
2019-02-05T17:30:21.973Z,24.57
2019-02-05T17:32:50.677Z,21.77
2019-02-05T17:35:19.751Z,24.87
2019-02-05T17:37:48.643Z,30.12
2019-02-05T17:40:18.979Z,24.85
2019-02-05T17:42:47.918Z,24.82
2019-02-05T17:45:18.795Z,21.12
2019-02-05T17:47:47.618Z,22.85
2019-02-05T17:50:16.307Z,18.10
2019-02-05T17:52:44.875Z,24.18
2019-02-05T17:55:13.889Z,21.80
2019-02-05T17:57:42.521Z,22.17
2019-02-05T18:00:15.450Z,24.25
2019-02-05T18:02:51.386Z,24.87
2019-02-05T18:05:15.225Z,23.15
2019-02-05T18:07:43.945Z,24.98
2019-02-05T18:10:14.540Z,23.40
2019-02-05T18:12:43.135Z,29.75
2019-02-05T18:15:15.126Z,27.82
2019-02-05T18:17:43.761Z,25.02
2019-02-05T18:20:12.471Z,28.73
2019-02-05T18:22:41.375Z,37.73
2019-02-05T18:25:11.528Z,27.17
2019-02-05T18:27:40.175Z,26.80
2019-02-05T18:30:18.441Z,25.45
2019-02-05T18:32:47.168Z,29.30
2019-02-05T18:35:16.409Z,22.40
2019-02-05T18:37:45.512Z,24.27
2019-02-05T18:40:15.129Z,22.50
2019-02-05T18:42:43.783Z,28.30
2019-02-05T18:45:13.755Z,22.75
2019-02-05T18:47:42.506Z,29.77
2019-02-05T18:50:14.158Z,19.35
2019-02-05T18:52:43.433Z,22.32
2019-02-05T18:55:12.146Z,19.23
2019-02-05T18:57:40.846Z,23.00
2019-02-05T19:00:23.945Z,21.25
2019-02-05T19:02:52.706Z,25.82
2019-02-05T19:05:21.884Z,18.40
2019-02-05T19:07:50.456Z,21.77
2019-02-05T19:10:20.954Z,20.82
2019-02-05T19:12:49.960Z,24.60
2019-02-05T19:15:20.690Z,33.10
2019-02-05T19:17:49.483Z,19.55
2019-02-05T19:20:18.744Z,16.57
2019-02-05T19:22:47.544Z,19.82
2019-02-05T19:25:32.555Z,19.55
2019-02-05T19:28:01.169Z,17.67
2019-02-05T19:30:31.095Z,19.25
2019-02-05T19:33:00.076Z,22.42
2019-02-05T19:35:28.670Z,26.50
2019-02-05T19:37:57.237Z,19.35
2019-02-05T19:40:25.833Z,15.55
2019-02-05T19:42:54.393Z,18.10
2019-02-05T19:45:42.445Z,20.37
2019-02-05T19:48:17.654Z,24.40
2019-02-05T19:50:46.630Z,17.23
2019-02-05T19:53:15.199Z,25.02
2019-02-05T19:55:43.987Z,19.35
2019-02-05T19:58:12.659Z,24.45
2019-02-05T20:00:41.239Z,23.15
2019-02-05T20:03:10.210Z,19.05
2019-02-05T20:05:39.103Z,18.37
2019-02-05T20:08:07.807Z,31.27
2019-02-05T20:10:36.426Z,19.62
2019-02-05T20:13:05.257Z,20.75
2019-02-05T20:15:33.838Z,17.77
2019-02-05T20:18:02.643Z,20.65
2019-02-05T20:20:31.795Z,21.90
2019-02-05T20:23:00.371Z,22.58
2019-02-05T20:25:28.962Z,19.95
2019-02-05T20:27:57.901Z,18.25
2019-02-05T20:30:26.841Z,26.55
2019-02-05T20:32:55.445Z,19.95
2019-02-05T20:35:24.199Z,17.10
2019-02-05T20:37:53.249Z,20.85
2019-02-05T20:40:22.044Z,18.77
2019-02-05T20:42:50.777Z,16.25
2019-02-05T20:45:19.434Z,16.87
2019-02-05T20:47:48.095Z,19.45
2019-02-05T20:50:16.708Z,23.77
2019-02-05T20:52:45.364Z,22.17
2019-02-05T20:55:14.884Z,20.75
2019-02-05T20:57:43.691Z,19.12
2019-02-05T21:00:15.479Z,20.70
2019-02-05T21:02:44.086Z,18.60
2019-02-05T21:05:14.017Z,24.32
2019-02-05T21:07:42.679Z,22.73
2019-02-05T21:10:14.291Z,30.85
2019-02-05T21:12:43.183Z,18.12
2019-02-05T21:15:12.229Z,17.57
2019-02-05T21:17:40.997Z,19.17
2019-02-05T21:20:12.086Z,11.78
2019-02-05T21:22:40.697Z,13.98
2019-02-05T21:25:11.159Z,16.90
2019-02-05T21:27:41.850Z,15.43
2019-02-05T21:30:13.274Z,20.95
2019-02-05T21:32:41.869Z,18.80
2019-02-05T21:35:10.602Z,17.52
2019-02-05T21:37:39.272Z,17.17
2019-02-05T21:40:11.042Z,17.10
2019-02-05T21:42:39.809Z,17.23
2019-02-05T21:45:10.782Z,19.80
2019-02-05T21:47:39.329Z,14.33
2019-02-05T21:50:10.522Z,16.30
2019-02-05T21:52:39.053Z,18.37
2019-02-05T21:55:09.309Z,17.82
2019-02-05T21:57:38.277Z,14.30
2019-02-05T22:00:21.616Z,18.95
2019-02-05T22:02:50.224Z,15.95
2019-02-05T22:05:18.900Z,16.50
2019-02-05T22:07:47.419Z,12.18
2019-02-05T22:10:16.651Z,18.67
2019-02-05T22:12:45.616Z,17.77
2019-02-05T22:15:14.774Z,22.70
2019-02-05T22:17:43.506Z,18.62
2019-02-05T22:20:14.632Z,18.35
2019-02-05T22:22:43.190Z,20.40
2019-02-05T22:25:17.553Z,16.23
2019-02-05T22:27:46.134Z,18.67
2019-02-05T22:30:17.440Z,22.70
2019-02-05T22:32:46.050Z,22.02
2019-02-05T22:35:14.859Z,23.62
2019-02-05T22:37:43.857Z,21.02
2019-02-05T22:40:12.928Z,20.35
2019-02-05T22:42:41.520Z,21.20
2019-02-05T22:45:11.066Z,23.65
2019-02-05T22:47:39.669Z,17.98
2019-02-05T22:50:11.656Z,19.00
2019-02-05T22:52:40.334Z,18.98
2019-02-05T22:55:09.278Z,20.40
2019-02-05T22:57:37.863Z,19.75
2019-02-05T23:00:21.283Z,21.23
2019-02-05T23:02:49.862Z,18.10
2019-02-05T23:05:49.571Z,19.40
2019-02-05T23:08:18.140Z,23.10
2019-02-05T23:11:05.840Z,29.50
2019-02-05T23:13:35.118Z,21.27
2019-02-05T23:16:03.768Z,23.47
2019-02-05T23:18:32.424Z,19.02
2019-02-05T23:21:01.331Z,18.23
2019-02-05T23:23:29.993Z,13.50
2019-02-05T23:25:58.571Z,18.55
2019-02-05T23:28:27.150Z,20.02
2019-02-05T23:30:55.719Z,14.20
2019-02-05T23:33:24.404Z,14.38
2019-02-05T23:35:52.969Z,17.70
2019-02-05T23:38:21.572Z,14.95
2019-02-05T23:40:50.129Z,10.48
2019-02-05T23:43:19.031Z,14.43
2019-02-05T23:46:00.998Z,14.18
2019-02-05T23:48:18.191Z,12.95
2019-02-05T23:50:46.778Z,12.85
2019-02-05T23:53:15.369Z,14.45
2019-02-05T23:55:44.042Z,13.08
2019-02-05T23:58:12.714Z,9.88
